Archival Weather

Snohomish County (Paine Fld)

Everett, Washington (KPAE)

Report from: Sunday, November 5, 2023 1:53 PM PST
Current time: Monday, June 24, 2024 3:43 AM PDT

Current weather – Weather history – Daily summaries
Weather forecast

Temperature13.9°C (57.0°F)
Dew point6.7°C (44.1°F)
Winds 5 kts (2.6 m/s, 5.8 mph) East-Southeast (120°)
Visibility10 mi. (16.1 km)
Clouds Ceiling: Broken clouds 10,000 ft. (3,048 m)
Overcast 11,000 ft. (3,353 m)
Altimeter29.77 in.Hg (1008 mB)
Relative humidity62 %
Density altitude186 ft. (57 m)
Sea-level pressure100.8 kPa (1008 mB, 29.77 in.Hg)
Remarks Automated weather observing station with precipitation discriminator
Flight conditions Visual Meteorological Conditions
Raw dataKPAE 052153Z 12005KT 10SM BKN100 OVC110 14/07 A2977 RMK AO2 SLP081 T01390067
An error has occurred. This application may no longer respond until reloaded. Reload 🗙